Aérodrome :
LOGIN :

S'inscrire | Disclaimer

   EN    FR    IT 

 










Légende :    VFR   VFR Marginal   IFR   IFR Intensif   IFR Très Intensif
Visi : 
Plafond : 
>= 8 km
>= 3000ft
5 à 8 km
1000 à 3000 ft
1500m à 5 km
500 à 1000 ft
800 à 1500m
200 à 500 ft
< 800m
< 200 ft
Symboles :   Orages  Brouillard  Fortes neiges  Fortes précipitations  Vent > 20 kt
SIGMETs :   Divers  Orages  Givrage  Turbulence  Onde Orograph.  Cendres Volcan.






- Altitude de l'aérodrome : 135 ft
- Code IATA : BOJ


LBBG - Burgas

DERNIER METAR :
  • 210030Z 02009KT 9999 FEW049 07/03 Q1018 R99/19//95 NOSIG

METARs EXPIRÉS :
  • 210000Z 01008KT 9999 FEW049 07/04 Q1018 R99/19//95 NOSIG
  • 202330Z 01007KT 9999 FEW049 07/04 Q1018 R99/19//95 NOSIG
  • 202300Z 02009KT 9999 FEW048 07/04 Q1018 R99/19//95 NOSIG
  • 202230Z 03008KT 9999 FEW048 07/04 Q1018 R99/19//95 NOSIG
  • 202200Z 01007KT 9999 SCT048 06/04 Q1018 R99/19//95 NOSIG

TAF TAF LBBG
Valide du 21 à 00h jusqu'au 22 à 00h UTC


202300Z 2100/2124 01010KT 9999 SCT030 BKN040
BECMG 2113/2115 VRB04KT



MET'MAP, la Météo Aéronautique d'un coup d'oeil ! - Copyright ORBIFLY Décembre 2007 - Disclaimer

ORBIFLY MET'MAP TEAM :

Programmation & Développement : Alexandra Zaïnal
Sur une idée originale de : Baudouin d'Aumeries
Assistance à la programmation : Marc-Olivier Méhu
Soutien technique & logistique : Manuel Goepfert

Contact : metmap@orbifly.com




SOURCES & CREDITS :

   NOAA